sensor_id;sensor_type;location;lat;lon;timestamp;pressure;altitude;pressure_sealevel;temperature;humidity
24610;BME280;12758;47.890;11.694;2022-09-04T00:02:24;93954.13;;;17.06;72.32
24610;BME280;12758;47.890;11.694;2022-09-04T00:04:55;93949.09;;;17.08;72.37
24610;BME280;12758;47.890;11.694;2022-09-04T00:07:25;93951.41;;;17.06;72.42
24610;BME280;12758;47.890;11.694;2022-09-04T00:09:59;93953.47;;;16.90;71.51
24610;BME280;12758;47.890;11.694;2022-09-04T00:12:31;93957.50;;;16.96;72.42
24610;BME280;12758;47.890;11.694;2022-09-04T00:15:02;93964.44;;;16.90;73.08
24610;BME280;12758;47.890;11.694;2022-09-04T00:17:30;93971.63;;;16.98;72.70
24610;BME280;12758;47.890;11.694;2022-09-04T00:20:00;93970.47;;;16.99;72.63
24610;BME280;12758;47.890;11.694;2022-09-04T00:22:29;93964.50;;;16.93;71.87
24610;BME280;12758;47.890;11.694;2022-09-04T00:25:04;93959.56;;;16.80;71.51
24610;BME280;12758;47.890;11.694;2022-09-04T00:27:34;93967.19;;;16.90;72.63
24610;BME280;12758;47.890;11.694;2022-09-04T00:30:10;93968.03;;;16.94;72.69
24610;BME280;12758;47.890;11.694;2022-09-04T00:32:40;93970.78;;;16.94;72.46
24610;BME280;12758;47.890;11.694;2022-09-04T00:35:12;93967.63;;;16.92;72.58
24610;BME280;12758;47.890;11.694;2022-09-04T00:37:42;93966.75;;;16.88;72.61
24610;BME280;12758;47.890;11.694;2022-09-04T00:40:18;93975.69;;;16.85;72.79
24610;BME280;12758;47.890;11.694;2022-09-04T00:42:53;93967.47;;;16.85;72.34
24610;BME280;12758;47.890;11.694;2022-09-04T00:45:27;93968.94;;;16.79;72.84
24610;BME280;12758;47.890;11.694;2022-09-04T00:48:08;93971.38;;;16.84;72.82
24610;BME280;12758;47.890;11.694;2022-09-04T00:51:16;93974.41;;;16.79;72.64
24610;BME280;12758;47.890;11.694;2022-09-04T00:54:19;93971.16;;;16.73;73.25
24610;BME280;12758;47.890;11.694;2022-09-04T00:57:35;93968.06;;;16.74;72.78
24610;BME280;12758;47.890;11.694;2022-09-04T01:00:06;93974.41;;;16.79;73.09
24610;BME280;12758;47.890;11.694;2022-09-04T01:02:46;93976.03;;;16.80;72.95
24610;BME280;12758;47.890;11.694;2022-09-04T01:05:25;93975.97;;;16.76;73.03
24610;BME280;12758;47.890;11.694;2022-09-04T01:07:59;93982.94;;;16.73;72.91
24610;BME280;12758;47.890;11.694;2022-09-04T01:10:38;93980.53;;;16.72;72.90
24610;BME280;12758;47.890;11.694;2022-09-04T01:13:08;93979.75;;;16.71;72.98
24610;BME280;12758;47.890;11.694;2022-09-04T01:15:39;93983.66;;;16.70;72.91
24610;BME280;12758;47.890;11.694;2022-09-04T01:18:11;93982.06;;;16.69;72.83
24610;BME280;12758;47.890;11.694;2022-09-04T01:20:50;93988.41;;;16.73;72.94
24610;BME280;12758;47.890;11.694;2022-09-04T01:23:25;93987.56;;;16.69;72.56
24610;BME280;12758;47.890;11.694;2022-09-04T01:26:05;93987.56;;;16.69;72.45
24610;BME280;12758;47.890;11.694;2022-09-04T01:28:35;93990.72;;;16.71;72.87
24610;BME280;12758;47.890;11.694;2022-09-04T01:31:11;93994.50;;;16.63;71.81
24610;BME280;12758;47.890;11.694;2022-09-04T01:33:41;93985.09;;;16.64;72.43
24610;BME280;12758;47.890;11.694;2022-09-04T01:36:15;93989.41;;;16.65;72.77
24610;BME280;12758;47.890;11.694;2022-09-04T01:38:46;93988.13;;;16.59;72.79
24610;BME280;12758;47.890;11.694;2022-09-04T01:41:18;93977.59;;;16.61;73.03
24610;BME280;12758;47.890;11.694;2022-09-04T01:43:46;93992.88;;;16.62;72.95
24610;BME280;12758;47.890;11.694;2022-09-04T01:46:28;93990.59;;;16.64;72.83
24610;BME280;12758;47.890;11.694;2022-09-04T01:48:59;93995.22;;;16.60;72.56
24610;BME280;12758;47.890;11.694;2022-09-04T01:51:34;93992.03;;;16.58;72.34
24610;BME280;12758;47.890;11.694;2022-09-04T01:54:16;93992.03;;;16.58;72.99
24610;BME280;12758;47.890;11.694;2022-09-04T01:56:53;93994.41;;;16.60;72.56
24610;BME280;12758;47.890;11.694;2022-09-04T01:59:25;93981.50;;;16.60;72.76
24610;BME280;12758;47.890;11.694;2022-09-04T02:01:57;93985.81;;;16.61;72.87
24610;BME280;12758;47.890;11.694;2022-09-04T02:04:28;93992.47;;;16.60;72.72
24610;BME280;12758;47.890;11.694;2022-09-04T02:06:59;93991.25;;;16.58;72.87
24610;BME280;12758;47.890;11.694;2022-09-04T02:09:33;93997.50;;;16.58;72.70
24610;BME280;12758;47.890;11.694;2022-09-04T02:12:07;93995.16;;;16.57;72.79
24610;BME280;12758;47.890;11.694;2022-09-04T02:14:41;93998.22;;;16.55;72.98
24610;BME280;12758;47.890;11.694;2022-09-04T02:17:13;93999.28;;;16.47;73.12
24610;BME280;12758;47.890;11.694;2022-09-04T02:19:58;94001.56;;;16.45;73.10
24610;BME280;12758;47.890;11.694;2022-09-04T02:22:31;93996.38;;;16.40;73.21
24610;BME280;12758;47.890;11.694;2022-09-04T02:25:01;94001.06;;;16.39;73.71
24610;BME280;12758;47.890;11.694;2022-09-04T02:27:34;93999.41;;;16.35;73.22
24610;BME280;12758;47.890;11.694;2022-09-04T02:30:08;93997.91;;;16.37;73.57
24610;BME280;12758;47.890;11.694;2022-09-04T02:32:37;93995.94;;;16.38;73.26
24610;BME280;12758;47.890;11.694;2022-09-04T02:35:08;93999.47;;;16.38;73.00
24610;BME280;12758;47.890;11.694;2022-09-04T02:37:40;93993.22;;;16.38;73.09
24610;BME280;12758;47.890;11.694;2022-09-04T02:40:14;94002.56;;;16.37;73.20
24610;BME280;12758;47.890;11.694;2022-09-04T02:42:49;93998.53;;;16.30;73.56
24610;BME280;12758;47.890;11.694;2022-09-04T02:45:23;93993.03;;;16.30;73.42
24610;BME280;12758;47.890;11.694;2022-09-04T02:47:57;93990.31;;;16.30;73.66
24610;BME280;12758;47.890;11.694;2022-09-04T02:50:35;93982.09;;;16.30;73.43
24610;BME280;12758;47.890;11.694;2022-09-04T02:53:12;93986.00;;;16.29;73.24
24610;BME280;12758;47.890;11.694;2022-09-04T02:55:57;93996.94;;;16.29;73.35
24610;BME280;12758;47.890;11.694;2022-09-04T02:58:36;93994.50;;;16.24;73.74
24610;BME280;12758;47.890;11.694;2022-09-04T03:01:10;93995.31;;;16.25;73.35
24610;BME280;12758;47.890;11.694;2022-09-04T03:03:42;94001.13;;;16.23;73.43
24610;BME280;12758;47.890;11.694;2022-09-04T03:06:10;93997.59;;;16.23;73.29
24610;BME280;12758;47.890;11.694;2022-09-04T03:08:40;93999.09;;;16.20;73.64
24610;BME280;12758;47.890;11.694;2022-09-04T03:11:12;94002.22;;;16.19;73.46
24610;BME280;12758;47.890;11.694;2022-09-04T03:13:43;94008.03;;;16.17;73.71
24610;BME280;12758;47.890;11.694;2022-09-04T03:16:16;94000.53;;;16.14;73.75
24610;BME280;12758;47.890;11.694;2022-09-04T03:18:58;94001.38;;;16.15;73.78
24610;BME280;12758;47.890;11.694;2022-09-04T03:21:31;94010.63;;;16.10;73.63
24610;BME280;12758;47.890;11.694;2022-09-04T03:24:01;94016.13;;;16.10;73.83
24610;BME280;12758;47.890;11.694;2022-09-04T03:26:30;94017.63;;;16.07;73.78
24610;BME280;12758;47.890;11.694;2022-09-04T03:29:02;94018.06;;;16.10;73.52
24610;BME280;12758;47.890;11.694;2022-09-04T03:31:34;94023.88;;;16.08;74.18
24610;BME280;12758;47.890;11.694;2022-09-04T03:34:11;94022.81;;;16.13;73.60
24610;BME280;12758;47.890;11.694;2022-09-04T03:36:44;94017.69;;;16.11;73.68
24610;BME280;12758;47.890;11.694;2022-09-04T03:39:15;94013.81;;;16.12;73.49
24610;BME280;12758;47.890;11.694;2022-09-04T03:41:48;94016.47;;;16.09;73.92
24610;BME280;12758;47.890;11.694;2022-09-04T03:44:21;94020.72;;;16.06;73.86
24610;BME280;12758;47.890;11.694;2022-09-04T03:46:58;94021.50;;;16.06;74.15
24610;BME280;12758;47.890;11.694;2022-09-04T03:49:38;94024.59;;;16.05;73.82
24610;BME280;12758;47.890;11.694;2022-09-04T03:52:12;94019.94;;;16.05;73.55
24610;BME280;12758;47.890;11.694;2022-09-04T03:55:04;94023.16;;;16.11;73.46
24610;BME280;12758;47.890;11.694;2022-09-04T03:57:54;94021.59;;;16.10;73.45
24610;BME280;12758;47.890;11.694;2022-09-04T04:00:23;94019.56;;;16.07;73.52
24610;BME280;12758;47.890;11.694;2022-09-04T04:03:00;94027.00;;;16.06;73.72
24610;BME280;12758;47.890;11.694;2022-09-04T04:05:34;94021.44;;;16.03;73.45
24610;BME280;12758;47.890;11.694;2022-09-04T04:08:26;94032.41;;;16.03;73.65
24610;BME280;12758;47.890;11.694;2022-09-04T04:11:01;94033.97;;;16.04;73.59
24610;BME280;12758;47.890;11.694;2022-09-04T04:13:50;94042.19;;;16.04;73.61
24610;BME280;12758;47.890;11.694;2022-09-04T04:16:27;94040.16;;;16.01;73.81
24610;BME280;12758;47.890;11.694;2022-09-04T04:19:05;94033.97;;;16.04;73.74
24610;BME280;12758;47.890;11.694;2022-09-04T04:21:40;94047.25;;;16.02;74.16
24610;BME280;12758;47.890;11.694;2022-09-04T04:24:28;94051.41;;;15.96;74.04
24610;BME280;12758;47.890;11.694;2022-09-04T04:27:11;94042.03;;;15.97;74.13
24610;BME280;12758;47.890;11.694;2022-09-04T04:30:00;94053.78;;;15.97;73.83
24610;BME280;12758;47.890;11.694;2022-09-04T04:32:36;94054.50;;;15.94;74.05
24610;BME280;12758;47.890;11.694;2022-09-04T04:35:08;94060.34;;;15.93;73.70
24610;BME280;12758;47.890;11.694;2022-09-04T04:37:42;94065.81;;;15.93;73.90
24610;BME280;12758;47.890;11.694;2022-09-04T04:40:22;94065.38;;;15.91;74.22
24610;BME280;12758;47.890;11.694;2022-09-04T04:42:52;94064.56;;;15.90;73.99
24610;BME280;12758;47.890;11.694;2022-09-04T04:45:24;94067.38;;;15.94;74.07
24610;BME280;12758;47.890;11.694;2022-09-04T04:48:38;94064.91;;;15.89;73.64
24610;BME280;12758;47.890;11.694;2022-09-04T04:51:17;94080.63;;;15.92;74.07
24610;BME280;12758;47.890;11.694;2022-09-04T04:54:18;94082.25;;;15.93;73.78
24610;BME280;12758;47.890;11.694;2022-09-04T04:56:50;94088.41;;;15.90;73.74
24610;BME280;12758;47.890;11.694;2022-09-04T04:59:22;94089.56;;;15.89;74.11
24610;BME280;12758;47.890;11.694;2022-09-04T05:01:57;94091.56;;;15.92;74.01
24610;BME280;12758;47.890;11.694;2022-09-04T05:04:34;94099.38;;;15.90;74.09
24610;BME280;12758;47.890;11.694;2022-09-04T05:07:06;94099.38;;;15.90;73.89
24610;BME280;12758;47.890;11.694;2022-09-04T05:09:39;94101.66;;;15.88;74.18
24610;BME280;12758;47.890;11.694;2022-09-04T05:12:12;94118.78;;;15.84;74.14
24610;BME280;12758;47.890;11.694;2022-09-04T05:14:47;94117.22;;;15.83;74.06
24610;BME280;12758;47.890;11.694;2022-09-04T05:17:21;94112.28;;;15.73;74.50
24610;BME280;12758;47.890;11.694;2022-09-04T05:20:16;94123.81;;;15.51;75.04
24610;BME280;12758;47.890;11.694;2022-09-04T05:22:45;94121.97;;;15.55;75.46
24610;BME280;12758;47.890;11.694;2022-09-04T05:25:17;94125.75;;;15.50;75.91
24610;BME280;12758;47.890;11.694;2022-09-04T05:27:55;94129.00;;;15.56;76.05
24610;BME280;12758;47.890;11.694;2022-09-04T05:30:29;94131.50;;;15.61;76.95
24610;BME280;12758;47.890;11.694;2022-09-04T05:33:01;94133.16;;;15.66;77.02
24610;BME280;12758;47.890;11.694;2022-09-04T05:35:34;94133.28;;;15.69;76.51
24610;BME280;12758;47.890;11.694;2022-09-04T05:38:07;94139.66;;;15.73;76.65
24610;BME280;12758;47.890;11.694;2022-09-04T05:40:44;94137.63;;;15.70;76.33
24610;BME280;12758;47.890;11.694;2022-09-04T05:43:18;94142.63;;;15.68;76.25
24610;BME280;12758;47.890;11.694;2022-09-04T05:45:56;94142.81;;;15.75;76.37
24610;BME280;12758;47.890;11.694;2022-09-04T05:48:28;94146.00;;;15.77;76.41
24610;BME280;12758;47.890;11.694;2022-09-04T05:51:27;94148.47;;;15.82;76.14
24610;BME280;12758;47.890;11.694;2022-09-04T05:54:15;94160.22;;;15.83;75.92
24610;BME280;12758;47.890;11.694;2022-09-04T05:56:56;94160.34;;;15.58;78.05
24610;BME280;12758;47.890;11.694;2022-09-04T05:59:42;94160.88;;;15.48;79.60
24610;BME280;12758;47.890;11.694;2022-09-04T06:02:20;94159.63;;;15.46;79.76
24610;BME280;12758;47.890;11.694;2022-09-04T06:05:00;94166.44;;;15.52;78.97
24610;BME280;12758;47.890;11.694;2022-09-04T06:07:35;94178.63;;;15.54;78.25
24610;BME280;12758;47.890;11.694;2022-09-04T06:10:09;94182.78;;;15.20;81.77
24610;BME280;12758;47.890;11.694;2022-09-04T06:12:56;94183.63;;;15.36;80.56
24610;BME280;12758;47.890;11.694;2022-09-04T06:15:35;94186.41;;;15.24;81.94
24610;BME280;12758;47.890;11.694;2022-09-04T06:18:22;94186.53;;;15.44;80.02
24610;BME280;12758;47.890;11.694;2022-09-04T06:21:05;94189.34;;;15.31;81.32
24610;BME280;12758;47.890;11.694;2022-09-04T06:23:44;94193.72;;;15.20;82.02
24610;BME280;12758;47.890;11.694;2022-09-04T06:26:20;94188.53;;;15.31;80.95
24610;BME280;12758;47.890;11.694;2022-09-04T06:29:04;94189.34;;;15.31;81.07
24610;BME280;12758;47.890;11.694;2022-09-04T06:31:58;94190.59;;;15.50;79.64
24610;BME280;12758;47.890;11.694;2022-09-04T06:34:37;94179.25;;;15.48;80.28
24610;BME280;12758;47.890;11.694;2022-09-04T06:37:15;94185.94;;;15.50;80.42
24610;BME280;12758;47.890;11.694;2022-09-04T06:39:53;94194.31;;;15.42;81.98
24610;BME280;12758;47.890;11.694;2022-09-04T06:42:34;94197.47;;;15.44;81.86
24610;BME280;12758;47.890;11.694;2022-09-04T06:45:13;94194.84;;;15.47;82.44
24610;BME280;12758;47.890;11.694;2022-09-04T06:47:53;94201.13;;;15.48;82.17
24610;BME280;12758;47.890;11.694;2022-09-04T06:50:27;94192.06;;;15.75;79.59
24610;BME280;12758;47.890;11.694;2022-09-04T06:53:13;94201.19;;;15.79;80.34
24610;BME280;12758;47.890;11.694;2022-09-04T06:55:49;94202.31;;;15.78;80.31
24610;BME280;12758;47.890;11.694;2022-09-04T06:58:36;94200.22;;;15.88;79.89
24610;BME280;12758;47.890;11.694;2022-09-04T07:01:08;94213.03;;;15.83;82.12
24610;BME280;12758;47.890;11.694;2022-09-04T07:03:43;94218.56;;;15.71;83.86
24610;BME280;12758;47.890;11.694;2022-09-04T07:06:17;94216.75;;;15.63;84.10
24610;BME280;12758;47.890;11.694;2022-09-04T07:08:55;94216.84;;;15.51;85.24
24610;BME280;12758;47.890;11.694;2022-09-04T07:11:32;94224.06;;;15.59;85.05
24610;BME280;12758;47.890;11.694;2022-09-04T07:14:15;94213.03;;;15.83;85.96
24610;BME280;12758;47.890;11.694;2022-09-04T07:16:49;94221.53;;;15.66;85.82
24610;BME280;12758;47.890;11.694;2022-09-04T07:19:44;94219.53;;;15.79;83.86
24610;BME280;12758;47.890;11.694;2022-09-04T07:22:22;94217.88;;;15.90;83.36
24610;BME280;12758;47.890;11.694;2022-09-04T07:25:09;94222.13;;;15.88;83.59
24610;BME280;12758;47.890;11.694;2022-09-04T07:27:45;94222.28;;;15.95;83.88
24610;BME280;12758;47.890;11.694;2022-09-04T07:30:13;94219.47;;;16.07;84.82
24610;BME280;12758;47.890;11.694;2022-09-04T07:32:43;94228.94;;;16.10;83.57
24610;BME280;12758;47.890;11.694;2022-09-04T07:35:15;94222.44;;;16.18;82.42
24610;BME280;12758;47.890;11.694;2022-09-04T07:37:46;94237.94;;;16.26;84.18
24610;BME280;12758;47.890;11.694;2022-09-04T07:40:15;94241.03;;;16.24;85.24
24610;BME280;12758;47.890;11.694;2022-09-04T07:42:47;94246.66;;;16.47;88.76
24610;BME280;12758;47.890;11.694;2022-09-04T07:45:20;94254.81;;;16.44;88.49
24610;BME280;12758;47.890;11.694;2022-09-04T07:47:54;94251.22;;;16.75;88.00
24610;BME280;12758;47.890;11.694;2022-09-04T07:50:23;94247.50;;;16.67;84.72
24610;BME280;12758;47.890;11.694;2022-09-04T07:52:59;94250.06;;;16.92;83.59
24610;BME280;12758;47.890;11.694;2022-09-04T07:55:34;94254.31;;;16.73;83.61
24610;BME280;12758;47.890;11.694;2022-09-04T08:00:57;94275.63;;;16.64;84.31
24610;BME280;12758;47.890;11.694;2022-09-04T08:03:34;94281.72;;;16.73;84.89
24610;BME280;12758;47.890;11.694;2022-09-04T08:06:06;94274.91;;;16.67;83.43
24610;BME280;12758;47.890;11.694;2022-09-04T08:09:00;94282.53;;;16.58;82.99
24610;BME280;12758;47.890;11.694;2022-09-04T08:20:25;94279.16;;;16.81;82.43
24610;BME280;12758;47.890;11.694;2022-09-04T08:23:01;94279.06;;;16.93;83.53
24610;BME280;12758;47.890;11.694;2022-09-04T08:25:39;94279.47;;;16.95;82.70
24610;BME280;12758;47.890;11.694;2022-09-04T08:28:14;94279.31;;;16.88;82.58
24610;BME280;12758;47.890;11.694;2022-09-04T08:30:52;94286.72;;;17.03;82.65
24610;BME280;12758;47.890;11.694;2022-09-04T08:33:27;94289.38;;;17.35;82.67
24610;BME280;12758;47.890;11.694;2022-09-04T08:35:58;94288.56;;;17.54;82.18
24610;BME280;12758;47.890;11.694;2022-09-04T08:38:32;94295.31;;;17.56;81.03
24610;BME280;12758;47.890;11.694;2022-09-04T08:44:10;94289.88;;;18.22;80.87
24610;BME280;12758;47.890;11.694;2022-09-04T08:50:23;94285.59;;;18.47;79.76
24610;BME280;12758;47.890;11.694;2022-09-04T08:53:07;94284.25;;;18.60;76.79
24610;BME280;12758;47.890;11.694;2022-09-04T08:55:56;94292.56;;;18.41;78.68
24610;BME280;12758;47.890;11.694;2022-09-04T09:01:44;94300.94;;;18.48;80.70
24610;BME280;12758;47.890;11.694;2022-09-04T09:04:33;94296.22;;;18.72;81.22
24610;BME280;12758;47.890;11.694;2022-09-04T09:10:05;94301.09;;;18.36;78.88
24610;BME280;12758;47.890;11.694;2022-09-04T09:15:55;94302.41;;;18.65;80.54
24610;BME280;12758;47.890;11.694;2022-09-04T09:18:33;94292.31;;;19.26;76.46
24610;BME280;12758;47.890;11.694;2022-09-04T09:21:05;94298.75;;;19.37;75.82
24610;BME280;12758;47.890;11.694;2022-09-04T09:23:38;94296.97;;;19.22;73.79
24610;BME280;12758;47.890;11.694;2022-09-04T09:26:33;94289.84;;;19.17;73.36
24610;BME280;12758;47.890;11.694;2022-09-04T09:32:52;94289.16;;;19.24;73.73
24610;BME280;12758;47.890;11.694;2022-09-04T09:39:08;94287.53;;;19.49;69.02
24610;BME280;12758;47.890;11.694;2022-09-04T09:44:49;94280.66;;;19.36;69.77
24610;BME280;12758;47.890;11.694;2022-09-04T09:47:52;94278.94;;;19.58;71.82
24610;BME280;12758;47.890;11.694;2022-09-04T09:50:56;94282.66;;;19.69;72.38
24610;BME280;12758;47.890;11.694;2022-09-04T09:53:50;94278.59;;;19.60;72.20
24610;BME280;12758;47.890;11.694;2022-09-04T09:56:35;94281.81;;;19.35;72.83
24610;BME280;12758;47.890;11.694;2022-09-04T10:02:40;94278.50;;;19.52;72.22
24610;BME280;12758;47.890;11.694;2022-09-04T10:05:38;94279.38;;;19.90;66.74
24610;BME280;12758;47.890;11.694;2022-09-04T10:08:39;94273.91;;;19.94;65.09
24610;BME280;12758;47.890;11.694;2022-09-04T10:11:13;94282.28;;;19.71;67.95
24610;BME280;12758;47.890;11.694;2022-09-04T10:13:52;94284.81;;;19.53;65.36
24610;BME280;12758;47.890;11.694;2022-09-04T10:16:42;94286.34;;;19.50;68.49
24610;BME280;12758;47.890;11.694;2022-09-04T10:19:43;94291.56;;;19.89;66.16
24610;BME280;12758;47.890;11.694;2022-09-04T10:22:44;94281.63;;;19.81;63.26
24610;BME280;12758;47.890;11.694;2022-09-04T10:25:38;94289.94;;;19.54;65.73
24610;BME280;12758;47.890;11.694;2022-09-04T10:31:40;94287.97;;;19.85;65.64
24610;BME280;12758;47.890;11.694;2022-09-04T10:34:27;94283.75;;;19.95;65.34
24610;BME280;12758;47.890;11.694;2022-09-04T10:37:03;94284.78;;;20.17;64.45
24610;BME280;12758;47.890;11.694;2022-09-04T10:39:38;94279.88;;;20.03;64.10
24610;BME280;12758;47.890;11.694;2022-09-04T10:42:33;94281.78;;;20.33;65.62
24610;BME280;12758;47.890;11.694;2022-09-04T10:45:24;94273.53;;;20.36;62.84
24610;BME280;12758;47.890;11.694;2022-09-04T10:48:19;94279.31;;;20.24;62.73
24610;BME280;12758;47.890;11.694;2022-09-04T10:50:59;94278.34;;;20.06;64.41
24610;BME280;12758;47.890;11.694;2022-09-04T10:53:41;94280.06;;;20.21;66.13
24610;BME280;12758;47.890;11.694;2022-09-04T10:56:18;94278.81;;;20.52;64.09
24610;BME280;12758;47.890;11.694;2022-09-04T10:58:56;94280.03;;;20.55;60.54
24610;BME280;12758;47.890;11.694;2022-09-04T11:01:47;94277.78;;;20.67;62.54
24610;BME280;12758;47.890;11.694;2022-09-04T11:04:38;94275.72;;;20.61;61.70
24610;BME280;12758;47.890;11.694;2022-09-04T11:07:21;94272.63;;;20.66;61.35
24610;BME280;12758;47.890;11.694;2022-09-04T11:13:07;94278.19;;;20.73;65.25
24610;BME280;12758;47.890;11.694;2022-09-04T11:15:45;94273.50;;;20.77;59.20
24610;BME280;12758;47.890;11.694;2022-09-04T11:18:57;94273.25;;;20.48;58.29
24610;BME280;12758;47.890;11.694;2022-09-04T11:28:00;94279.66;;;20.60;59.08
24610;BME280;12758;47.890;11.694;2022-09-04T11:30:30;94278.34;;;20.94;60.11
24610;BME280;12758;47.890;11.694;2022-09-04T11:33:25;94279.16;;;20.99;62.75
24610;BME280;12758;47.890;11.694;2022-09-04T11:39:19;94277.16;;;20.47;61.84
24610;BME280;12758;47.890;11.694;2022-09-04T11:42:18;94276.78;;;20.49;62.60
24610;BME280;12758;47.890;11.694;2022-09-04T11:44:59;94282.19;;;20.79;59.59
24610;BME280;12758;47.890;11.694;2022-09-04T11:50:24;94283.84;;;20.87;57.47
24610;BME280;12758;47.890;11.694;2022-09-04T11:56:02;94281.72;;;21.25;58.72
24610;BME280;12758;47.890;11.694;2022-09-04T11:58:50;94283.38;;;21.37;59.37
24610;BME280;12758;47.890;11.694;2022-09-04T12:01:33;94285.66;;;21.31;60.90
24610;BME280;12758;47.890;11.694;2022-09-04T12:04:10;94281.84;;;21.47;56.65
24610;BME280;12758;47.890;11.694;2022-09-04T12:07:02;94271.34;;;20.53;61.64
24610;BME280;12758;47.890;11.694;2022-09-04T12:09:46;94284.09;;;21.30;59.82
24610;BME280;12758;47.890;11.694;2022-09-04T12:12:34;94281.03;;;21.43;60.85
24610;BME280;12758;47.890;11.694;2022-09-04T12:18:42;94278.31;;;21.53;57.66
24610;BME280;12758;47.890;11.694;2022-09-04T12:24:13;94263.75;;;21.60;56.50
24610;BME280;12758;47.890;11.694;2022-09-04T12:27:17;94277.22;;;21.72;54.75
24610;BME280;12758;47.890;11.694;2022-09-04T12:30:03;94269.38;;;21.81;55.64
24610;BME280;12758;47.890;11.694;2022-09-04T12:32:55;94265.41;;;21.82;54.82
24610;BME280;12758;47.890;11.694;2022-09-04T12:41:18;94267.84;;;22.02;54.89
24610;BME280;12758;47.890;11.694;2022-09-04T12:43:52;94264.69;;;22.03;54.84
24610;BME280;12758;47.890;11.694;2022-09-04T12:46:36;94263.84;;;21.81;55.24
24610;BME280;12758;47.890;11.694;2022-09-04T12:49:17;94260.53;;;21.44;53.54
24610;BME280;12758;47.890;11.694;2022-09-04T12:51:53;94260.59;;;21.58;56.03
24610;BME280;12758;47.890;11.694;2022-09-04T12:54:29;94263.47;;;21.86;54.68
24610;BME280;12758;47.890;11.694;2022-09-04T12:57:09;94263.13;;;22.13;55.31
24610;BME280;12758;47.890;11.694;2022-09-04T12:59:49;94269.50;;;22.17;55.60
24610;BME280;12758;47.890;11.694;2022-09-04T13:02:26;94270.28;;;22.21;54.85
24610;BME280;12758;47.890;11.694;2022-09-04T13:05:04;94280.19;;;22.26;52.91
24610;BME280;12758;47.890;11.694;2022-09-04T13:07:42;94275.00;;;22.14;53.69
24610;BME280;12758;47.890;11.694;2022-09-04T13:10:30;94276.53;;;22.07;50.93
24610;BME280;12758;47.890;11.694;2022-09-04T13:13:07;94278.53;;;22.07;54.38
24610;BME280;12758;47.890;11.694;2022-09-04T13:15:44;94273.44;;;22.16;53.98
24610;BME280;12758;47.890;11.694;2022-09-04T13:18:21;94274.25;;;22.20;53.50
24610;BME280;12758;47.890;11.694;2022-09-04T13:20:52;94278.13;;;22.08;53.71
24610;BME280;12758;47.890;11.694;2022-09-04T13:23:26;94278.97;;;22.16;52.80
24610;BME280;12758;47.890;11.694;2022-09-04T13:26:08;94279.81;;;22.35;54.78
24610;BME280;12758;47.890;11.694;2022-09-04T13:28:45;94277.44;;;22.44;53.81
24610;BME280;12758;47.890;11.694;2022-09-04T13:31:30;94272.72;;;22.55;52.61
24610;BME280;12758;47.890;11.694;2022-09-04T13:34:05;94271.13;;;22.54;51.79
24610;BME280;12758;47.890;11.694;2022-09-04T13:36:42;94277.47;;;22.51;53.00
24610;BME280;12758;47.890;11.694;2022-09-04T13:42:26;94281.38;;;22.43;52.88
24610;BME280;12758;47.890;11.694;2022-09-04T13:45:04;94275.06;;;22.39;49.99
24610;BME280;12758;47.890;11.694;2022-09-04T13:47:44;94278.78;;;21.73;55.59
24610;BME280;12758;47.890;11.694;2022-09-04T13:50:17;94277.41;;;22.29;53.13
24610;BME280;12758;47.890;11.694;2022-09-04T13:52:46;94279.81;;;22.56;51.83
24610;BME280;12758;47.890;11.694;2022-09-04T13:55:15;94276.25;;;22.52;52.73
24610;BME280;12758;47.890;11.694;2022-09-04T13:57:47;94273.09;;;22.43;51.30
24610;BME280;12758;47.890;11.694;2022-09-04T14:00:20;94269.91;;;22.19;52.71
24610;BME280;12758;47.890;11.694;2022-09-04T14:02:46;94269.03;;;22.01;52.73
24610;BME280;12758;47.890;11.694;2022-09-04T14:05:22;94277.72;;;21.99;53.13
24610;BME280;12758;47.890;11.694;2022-09-04T14:07:56;94274.13;;;21.84;54.69
24610;BME280;12758;47.890;11.694;2022-09-04T14:13:12;94278.13;;;22.08;56.16
24610;BME280;12758;47.890;11.694;2022-09-04T14:15:47;94278.09;;;21.98;51.51
24610;BME280;12758;47.890;11.694;2022-09-04T14:18:28;94278.63;;;22.36;56.71
24610;BME280;12758;47.890;11.694;2022-09-04T14:20:58;94283.78;;;22.41;51.90
24610;BME280;12758;47.890;11.694;2022-09-04T14:23:35;94279.00;;;22.30;52.93
24610;BME280;12758;47.890;11.694;2022-09-04T14:26:10;94280.59;;;22.42;51.74
24610;BME280;12758;47.890;11.694;2022-09-04T14:28:44;94275.84;;;22.50;50.94
24610;BME280;12758;47.890;11.694;2022-09-04T14:31:14;94282.19;;;22.47;52.02
24610;BME280;12758;47.890;11.694;2022-09-04T14:33:48;94281.28;;;22.00;50.90
24610;BME280;12758;47.890;11.694;2022-09-04T14:36:23;94286.03;;;21.99;53.78
24610;BME280;12758;47.890;11.694;2022-09-04T14:39:00;94289.69;;;22.36;55.37
24610;BME280;12758;47.890;11.694;2022-09-04T14:41:35;94281.38;;;22.50;53.30
24610;BME280;12758;47.890;11.694;2022-09-04T14:44:16;94289.31;;;22.59;53.12
24610;BME280;12758;47.890;11.694;2022-09-04T14:46:48;94281.44;;;22.86;50.64
24610;BME280;12758;47.890;11.694;2022-09-04T14:49:22;94298.03;;;22.86;52.28
24610;BME280;12758;47.890;11.694;2022-09-04T14:51:49;94292.91;;;23.02;51.40
24610;BME280;12758;47.890;11.694;2022-09-04T14:54:23;94291.69;;;22.89;48.47
24610;BME280;12758;47.890;11.694;2022-09-04T14:56:51;94285.34;;;22.88;51.95
24610;BME280;12758;47.890;11.694;2022-09-04T14:59:23;94290.13;;;23.16;53.65
24610;BME280;12758;47.890;11.694;2022-09-04T15:02:05;94292.09;;;22.94;49.79
24610;BME280;12758;47.890;11.694;2022-09-04T15:04:39;94290.13;;;23.16;49.82
24610;BME280;12758;47.890;11.694;2022-09-04T15:07:30;94292.88;;;23.16;50.54
24610;BME280;12758;47.890;11.694;2022-09-04T15:10:06;94290.91;;;23.06;51.58